createdAt,value
2023-04-10T00:00:39.320Z,17.03
2023-04-10T00:03:06.958Z,14.17
2023-04-10T00:05:34.290Z,14.53
2023-04-10T00:08:02.886Z,14.37
2023-04-10T00:10:31.695Z,15.83
2023-04-10T00:13:00.890Z,13.93
2023-04-10T00:15:28.755Z,13.37
2023-04-10T00:17:55.981Z,14.87
2023-04-10T00:20:26.174Z,13.70
2023-04-10T00:22:53.312Z,13.40
2023-04-10T00:25:20.682Z,11.77
2023-04-10T00:27:47.783Z,15.00
2023-04-10T00:30:14.875Z,15.03
2023-04-10T00:32:43.709Z,14.67
2023-04-10T00:35:10.848Z,15.03
2023-04-10T00:37:38.401Z,15.60
2023-04-10T00:40:06.698Z,14.63
2023-04-10T00:42:33.908Z,15.43
2023-04-10T00:45:01.204Z,14.70
2023-04-10T00:47:29.005Z,15.00
2023-04-10T00:49:56.342Z,14.33
2023-04-10T00:52:26.101Z,13.63
2023-04-10T00:54:53.199Z,16.40
2023-04-10T00:57:20.341Z,14.23
2023-04-10T00:59:48.857Z,15.00
2023-04-10T01:02:18.148Z,14.87
2023-04-10T01:04:45.802Z,14.83
2023-04-10T01:07:47.302Z,14.53
2023-04-10T01:10:53.880Z,14.23
2023-04-10T01:13:43.630Z,14.00
2023-04-10T01:16:52.234Z,12.57
2023-04-10T01:19:49.228Z,12.67
2023-04-10T01:22:17.489Z,15.50
2023-04-10T01:25:38.453Z,14.60
2023-04-10T01:28:12.017Z,14.17
2023-04-10T01:30:40.511Z,12.63
2023-04-10T01:33:13.623Z,11.83
2023-04-10T01:35:46.039Z,11.63
2023-04-10T01:38:15.860Z,10.53
2023-04-10T01:40:50.264Z,11.53
2023-04-10T01:43:19.462Z,10.10
2023-04-10T01:45:49.388Z,11.80
2023-04-10T01:48:18.686Z,11.57
2023-04-10T01:50:47.777Z,11.93
2023-04-10T01:53:15.917Z,13.43
2023-04-10T01:55:43.684Z,11.93
2023-04-10T01:58:11.971Z,11.80
2023-04-10T02:00:41.836Z,13.00
2023-04-10T02:03:10.820Z,12.80
2023-04-10T02:06:35.404Z,11.47
2023-04-10T02:09:38.111Z,10.53
2023-04-10T02:12:15.616Z,13.57
2023-04-10T02:14:47.998Z,10.67
2023-04-10T02:17:23.592Z,12.53
2023-04-10T02:19:53.318Z,14.30
2023-04-10T02:22:21.999Z,13.87
2023-04-10T02:24:50.108Z,14.03
2023-04-10T02:27:27.689Z,11.87
2023-04-10T02:29:54.793Z,11.17
2023-04-10T02:32:21.857Z,11.00
2023-04-10T02:34:48.968Z,10.63
2023-04-10T02:37:16.624Z,10.70
2023-04-10T02:39:43.704Z,12.83
2023-04-10T02:42:11.104Z,10.93
2023-04-10T02:44:39.590Z,10.97
2023-04-10T02:47:07.156Z,10.50
2023-04-10T02:49:35.109Z,9.23
2023-04-10T02:52:02.573Z,8.13
2023-04-10T02:54:29.671Z,8.97
2023-04-10T02:57:00.416Z,9.30
2023-04-10T02:59:27.760Z,9.20
2023-04-10T03:01:54.952Z,8.37
2023-04-10T03:04:22.133Z,8.07
2023-04-10T03:06:49.356Z,9.57
2023-04-10T03:09:16.986Z,9.47
2023-04-10T03:11:44.069Z,7.93
2023-04-10T03:14:11.146Z,8.13
2023-04-10T03:16:38.366Z,8.67
2023-04-10T03:19:05.725Z,8.93
2023-04-10T03:21:32.879Z,9.40
2023-04-10T03:23:59.998Z,9.37
2023-04-10T03:26:28.346Z,9.90
2023-04-10T03:28:55.491Z,10.80
2023-04-10T03:31:22.684Z,11.43
2023-04-10T03:33:49.985Z,9.77
2023-04-10T03:36:17.254Z,10.37
2023-04-10T03:38:46.402Z,9.90
2023-04-10T03:41:13.581Z,11.50
2023-04-10T03:43:40.728Z,10.47
2023-04-10T03:46:07.801Z,10.67
2023-04-10T03:48:34.873Z,9.30
2023-04-10T03:51:04.298Z,10.30
2023-04-10T03:53:35.902Z,9.67
2023-04-10T03:56:04.145Z,10.63
2023-04-10T03:58:31.329Z,10.37
2023-04-10T04:00:58.511Z,8.10
2023-04-10T04:03:25.749Z,9.83
2023-04-10T04:05:52.891Z,9.97
2023-04-10T04:08:20.011Z,10.03
2023-04-10T04:10:47.149Z,9.53
2023-04-10T04:13:14.192Z,9.40
2023-04-10T04:15:42.302Z,8.90
2023-04-10T04:18:10.626Z,8.70
2023-04-10T04:20:37.686Z,8.40
2023-04-10T04:23:04.750Z,8.73
2023-04-10T04:25:31.832Z,9.00
2023-04-10T04:27:58.927Z,8.33
2023-04-10T04:30:26.001Z,8.93
2023-04-10T04:32:53.076Z,8.67
2023-04-10T04:35:20.244Z,9.27
2023-04-10T04:37:49.460Z,8.33
2023-04-10T04:40:16.629Z,8.47
2023-04-10T04:42:43.695Z,9.57
2023-04-10T04:45:11.279Z,9.53
2023-04-10T04:47:38.402Z,10.23
2023-04-10T04:50:06.672Z,9.07
2023-04-10T04:52:35.276Z,8.90
2023-04-10T04:55:02.432Z,9.67
2023-04-10T04:57:29.437Z,8.73
2023-04-10T04:59:56.643Z,8.87
2023-04-10T05:02:23.876Z,7.87
2023-04-10T05:04:51.368Z,8.47
2023-04-10T05:07:18.421Z,7.33
2023-04-10T05:09:45.507Z,8.63
2023-04-10T05:12:12.624Z,8.40
2023-04-10T05:14:39.709Z,7.90
2023-04-10T05:17:07.795Z,8.40
2023-04-10T05:19:34.851Z,7.80
2023-04-10T05:22:01.911Z,8.00
2023-04-10T05:24:28.956Z,7.63
2023-04-10T05:26:56.039Z,7.03
2023-04-10T05:29:24.748Z,6.83
2023-04-10T05:31:53.388Z,7.70
2023-04-10T05:34:20.819Z,7.37
2023-04-10T05:36:47.880Z,7.80
2023-04-10T05:39:15.778Z,7.80
2023-04-10T05:41:42.937Z,7.43
2023-04-10T05:44:10.079Z,7.93
2023-04-10T05:46:37.246Z,8.27
2023-04-10T05:49:04.351Z,7.80
2023-04-10T05:51:31.950Z,7.23
2023-04-10T05:53:59.029Z,8.07
2023-04-10T05:56:28.136Z,7.50
2023-04-10T05:58:55.474Z,7.90
2023-04-10T06:01:22.904Z,8.20
2023-04-10T06:03:50.144Z,7.97
2023-04-10T06:06:21.784Z,8.13
2023-04-10T06:08:50.296Z,7.67
2023-04-10T06:11:17.399Z,8.57
2023-04-10T06:13:44.487Z,7.80
2023-04-10T06:16:11.884Z,8.63
2023-04-10T06:18:41.888Z,9.37
2023-04-10T06:21:09.104Z,8.90
2023-04-10T06:23:37.223Z,8.07
2023-04-10T06:26:04.708Z,9.53
2023-04-10T06:28:31.769Z,8.47
2023-04-10T06:30:58.939Z,9.20
2023-04-10T06:33:26.380Z,9.00
2023-04-10T06:35:53.530Z,9.07
2023-04-10T06:38:22.963Z,9.63
2023-04-10T06:40:51.649Z,9.10
2023-04-10T06:43:18.692Z,9.70
2023-04-10T06:45:46.350Z,8.70
2023-04-10T06:48:13.640Z,9.97
2023-04-10T06:50:40.791Z,9.87
2023-04-10T06:53:08.011Z,10.07
2023-04-10T06:55:35.272Z,11.03
2023-04-10T06:58:02.361Z,10.47
2023-04-10T07:00:31.173Z,11.17
2023-04-10T07:02:58.418Z,10.80
2023-04-10T07:05:25.524Z,10.47
2023-04-10T07:07:53.264Z,11.30
2023-04-10T07:10:20.798Z,10.97
2023-04-10T07:12:47.948Z,12.80
2023-04-10T07:15:15.059Z,12.47
2023-04-10T07:17:42.456Z,13.33
2023-04-10T07:20:10.648Z,13.00
2023-04-10T07:22:38.949Z,12.13
2023-04-10T07:25:07.293Z,13.13
2023-04-10T07:27:34.554Z,15.67
2023-04-10T07:30:01.733Z,14.77
2023-04-10T07:32:28.972Z,15.57
2023-04-10T07:34:56.189Z,16.03
2023-04-10T07:37:23.293Z,16.33
2023-04-10T07:39:50.385Z,15.97
2023-04-10T07:42:17.451Z,15.63
2023-04-10T07:44:44.596Z,18.10
2023-04-10T07:47:11.831Z,18.67
2023-04-10T07:49:38.975Z,18.90
2023-04-10T07:52:06.234Z,18.20
2023-04-10T07:54:36.566Z,16.97
2023-04-10T07:57:03.652Z,17.90
2023-04-10T07:59:30.839Z,16.07
2023-04-10T08:01:58.089Z,16.63
2023-04-10T08:04:25.542Z,17.73
2023-04-10T08:06:52.922Z,17.07
2023-04-10T08:09:20.542Z,15.73
2023-04-10T08:11:47.936Z,15.97
2023-04-10T08:14:17.965Z,17.17
2023-04-10T08:16:45.935Z,16.77
2023-04-10T08:19:13.249Z,16.30
2023-04-10T08:21:40.414Z,16.27
2023-04-10T08:24:07.649Z,16.77
2023-04-10T08:26:37.669Z,17.47
2023-04-10T08:29:04.764Z,16.77
2023-04-10T08:31:32.079Z,16.40
2023-04-10T08:33:59.754Z,16.13
2023-04-10T08:36:27.685Z,16.60
2023-04-10T08:38:54.808Z,16.53
2023-04-10T08:41:22.088Z,15.40
2023-04-10T08:43:51.300Z,16.13
2023-04-10T08:46:18.537Z,15.73
2023-04-10T08:49:05.487Z,16.47
2023-04-10T08:51:43.941Z,16.93
2023-04-10T08:54:28.465Z,16.27
2023-04-10T08:56:58.441Z,16.30
2023-04-10T08:59:27.636Z,16.30
2023-04-10T09:01:54.829Z,14.70
2023-04-10T09:04:23.384Z,15.10
2023-04-10T09:06:50.758Z,14.47
2023-04-10T09:09:17.928Z,15.57
2023-04-10T09:12:00.236Z,15.27
2023-04-10T09:14:32.612Z,13.63
2023-04-10T09:17:21.597Z,14.47
2023-04-10T09:19:49.416Z,11.20
2023-04-10T09:22:17.316Z,13.97
2023-04-10T09:24:47.759Z,14.30
2023-04-10T09:27:37.210Z,14.57
2023-04-10T09:30:07.156Z,12.93
2023-04-10T09:33:02.176Z,12.83
2023-04-10T09:35:39.612Z,13.40
2023-04-10T09:38:21.784Z,14.73
2023-04-10T09:40:49.655Z,14.90
2023-04-10T09:43:27.311Z,12.70
2023-04-10T09:45:57.466Z,14.23
2023-04-10T09:48:29.098Z,12.53
2023-04-10T09:50:57.669Z,13.20
2023-04-10T09:53:25.319Z,13.87
2023-04-10T09:55:52.506Z,13.03
2023-04-10T09:58:19.602Z,12.43
2023-04-10T10:00:50.015Z,12.37
2023-04-10T10:03:23.016Z,11.57
2023-04-10T10:05:54.553Z,12.53
2023-04-10T10:08:22.838Z,12.63
2023-04-10T10:10:57.417Z,12.80
2023-04-10T10:13:46.813Z,11.70
2023-04-10T10:16:47.002Z,11.47
2023-04-10T10:19:29.209Z,12.27
2023-04-10T10:21:57.422Z,11.20
2023-04-10T10:24:26.451Z,10.20
2023-04-10T10:26:57.261Z,10.03
2023-04-10T10:29:30.212Z,9.17
2023-04-10T10:31:59.914Z,8.68
2023-04-10T10:34:27.198Z,9.17
2023-04-10T10:36:54.650Z,8.67
2023-04-10T10:40:14.281Z,9.13
2023-04-10T10:43:05.836Z,9.13
2023-04-10T10:45:57.340Z,9.35
2023-04-10T10:48:24.702Z,9.15
2023-04-10T10:51:01.974Z,9.82
2023-04-10T10:53:45.884Z,9.75
2023-04-10T10:56:18.889Z,9.47
2023-04-10T10:58:56.071Z,10.45
2023-04-10T11:01:24.331Z,10.10
2023-04-10T11:03:51.703Z,10.25
2023-04-10T11:06:48.626Z,9.50
2023-04-10T11:09:57.166Z,7.82
2023-04-10T11:12:25.460Z,7.78
2023-04-10T11:15:04.939Z,6.93
2023-04-10T11:17:54.233Z,7.38
2023-04-10T11:20:25.741Z,7.50
2023-04-10T11:23:13.076Z,6.93
2023-04-10T11:25:52.903Z,6.80
2023-04-10T11:28:32.213Z,6.90
2023-04-10T11:31:22.028Z,7.22
2023-04-10T11:34:02.585Z,7.32
2023-04-10T11:36:31.939Z,7.40
2023-04-10T11:39:09.078Z,7.65
2023-04-10T11:41:42.702Z,8.40
2023-04-10T11:44:14.543Z,7.68
2023-04-10T11:46:47.907Z,8.88
2023-04-10T11:49:29.826Z,8.00
2023-04-10T11:51:59.275Z,8.00
2023-04-10T11:54:29.602Z,6.97
2023-04-10T11:57:09.780Z,9.05
2023-04-10T11:59:37.102Z,7.72
2023-04-10T12:02:17.417Z,8.50
2023-04-10T12:04:44.950Z,8.25
2023-04-10T12:07:12.286Z,7.80
2023-04-10T12:09:39.665Z,8.32
2023-04-10T12:12:08.303Z,8.27
2023-04-10T12:14:42.401Z,7.60
2023-04-10T12:17:12.860Z,8.68
2023-04-10T12:19:41.756Z,6.93
2023-04-10T12:22:12.855Z,7.97
2023-04-10T12:24:50.668Z,7.53
2023-04-10T12:27:27.494Z,7.05
2023-04-10T12:29:59.004Z,7.43
2023-04-10T12:32:27.827Z,5.95
2023-04-10T12:35:01.297Z,7.68
2023-04-10T12:37:54.352Z,7.78
2023-04-10T12:40:21.585Z,7.35
2023-04-10T12:42:48.832Z,7.95
2023-04-10T12:45:15.893Z,8.52
2023-04-10T12:47:54.271Z,7.63
2023-04-10T12:50:21.816Z,8.10
2023-04-10T12:53:11.814Z,7.88
2023-04-10T12:55:40.829Z,7.90
2023-04-10T12:58:20.558Z,7.43
2023-04-10T13:00:49.077Z,7.22
2023-04-10T13:03:16.355Z,8.65
2023-04-10T13:05:44.688Z,7.40
2023-04-10T13:08:12.011Z,6.80
2023-04-10T13:10:40.484Z,6.72
2023-04-10T13:13:13.878Z,7.43
2023-04-10T13:15:41.605Z,6.95
2023-04-10T13:18:10.408Z,6.25
2023-04-10T13:20:41.193Z,6.05
2023-04-10T13:23:08.778Z,5.35
2023-04-10T13:25:40.598Z,5.68
2023-04-10T13:28:11.119Z,5.30
2023-04-10T13:30:42.321Z,4.72
2023-04-10T13:33:10.238Z,4.78
2023-04-10T13:35:37.510Z,4.85
2023-04-10T13:38:09.131Z,4.72
2023-04-10T13:40:36.185Z,5.22
2023-04-10T13:43:05.782Z,4.88
2023-04-10T13:45:33.691Z,5.28
2023-04-10T13:48:00.973Z,5.75
2023-04-10T13:50:28.159Z,4.28
2023-04-10T13:52:55.264Z,4.22
2023-04-10T13:55:22.523Z,4.72
2023-04-10T13:57:49.545Z,5.70
2023-04-10T14:00:17.425Z,5.35
2023-04-10T14:02:45.771Z,4.97
2023-04-10T14:05:12.923Z,5.38
2023-04-10T14:07:39.985Z,5.10
2023-04-10T14:10:08.381Z,4.90
2023-04-10T14:12:37.072Z,5.38
2023-04-10T14:15:05.954Z,5.95
2023-04-10T14:17:34.813Z,5.25
2023-04-10T14:20:01.973Z,5.38
2023-04-10T14:22:30.331Z,5.50
2023-04-10T14:25:09.423Z,5.40
2023-04-10T14:27:40.690Z,4.85
2023-04-10T14:30:10.069Z,4.90
2023-04-10T14:32:39.284Z,4.60
2023-04-10T14:35:07.359Z,5.07
2023-04-10T14:37:34.474Z,5.15
2023-04-10T14:40:01.677Z,4.90
2023-04-10T14:42:28.940Z,4.72
2023-04-10T14:45:01.059Z,5.32
2023-04-10T14:47:31.633Z,5.43
2023-04-10T14:49:58.850Z,6.30
2023-04-10T14:52:27.654Z,5.97
2023-04-10T14:54:54.769Z,7.47
2023-04-10T14:57:21.951Z,6.38
2023-04-10T14:59:49.058Z,6.82
2023-04-10T15:02:16.180Z,6.50
2023-04-10T15:04:43.399Z,7.30
2023-04-10T15:07:10.459Z,6.20
2023-04-10T15:09:37.803Z,6.00
2023-04-10T15:12:05.247Z,8.15
2023-04-10T15:14:32.511Z,7.78
2023-04-10T15:16:59.722Z,7.72
2023-04-10T15:19:27.330Z,7.07
2023-04-10T15:21:55.693Z,7.60
2023-04-10T15:24:25.182Z,7.88
2023-04-10T15:26:53.552Z,7.07
2023-04-10T15:29:23.539Z,6.82
2023-04-10T15:31:51.259Z,6.60
2023-04-10T15:34:19.061Z,7.22
2023-04-10T15:36:46.163Z,7.10
2023-04-10T15:39:13.482Z,7.72
2023-04-10T15:41:42.620Z,7.00
2023-04-10T15:44:09.925Z,8.93
2023-04-10T15:46:37.891Z,6.90
2023-04-10T15:49:05.356Z,6.43
2023-04-10T15:51:32.497Z,7.53
2023-04-10T15:54:04.799Z,6.65
2023-04-10T15:56:33.339Z,6.60
2023-04-10T15:59:00.495Z,6.47
2023-04-10T16:01:27.839Z,6.78
2023-04-10T16:03:55.314Z,7.00
2023-04-10T16:06:25.827Z,6.65
2023-04-10T16:08:53.218Z,6.00
2023-04-10T16:11:24.111Z,6.78
2023-04-10T16:13:51.195Z,6.60
2023-04-10T16:16:18.816Z,6.57
2023-04-10T16:18:46.478Z,6.55
2023-04-10T16:21:16.817Z,6.20
2023-04-10T16:23:44.110Z,6.45
2023-04-10T16:26:11.182Z,6.28
2023-04-10T16:28:40.704Z,6.00
2023-04-10T16:31:07.875Z,5.75
2023-04-10T16:33:34.972Z,6.47
2023-04-10T16:36:05.023Z,6.15
2023-04-10T16:38:34.475Z,6.25
2023-04-10T16:41:05.866Z,5.90
2023-04-10T16:43:32.978Z,6.45
2023-04-10T16:46:00.330Z,6.13
2023-04-10T16:48:27.751Z,5.90
2023-04-10T16:50:54.895Z,6.40
2023-04-10T16:53:22.344Z,6.10
2023-04-10T16:56:02.803Z,6.78
2023-04-10T16:58:31.473Z,6.70
2023-04-10T17:00:58.912Z,6.13
2023-04-10T17:03:26.701Z,5.50
2023-04-10T17:05:53.774Z,5.82
2023-04-10T17:08:20.833Z,5.75
2023-04-10T17:10:47.848Z,5.95
2023-04-10T17:13:20.391Z,5.95
2023-04-10T17:15:47.488Z,6.50
2023-04-10T17:18:15.163Z,6.13
2023-04-10T17:20:42.345Z,6.37
2023-04-10T17:23:09.403Z,6.97
2023-04-10T17:25:40.593Z,7.27
2023-04-10T17:28:08.373Z,7.67
2023-04-10T17:30:35.824Z,7.67
2023-04-10T17:33:02.971Z,7.30
2023-04-10T17:35:30.365Z,7.40
2023-04-10T17:37:57.435Z,7.27
2023-04-10T17:40:24.990Z,7.63
2023-04-10T17:42:52.122Z,7.60
2023-04-10T17:45:19.455Z,7.40
2023-04-10T17:47:46.548Z,7.77
2023-04-10T17:50:13.692Z,8.10
2023-04-10T17:52:40.918Z,8.37
2023-04-10T17:55:08.979Z,7.93
2023-04-10T17:57:36.003Z,8.90
2023-04-10T18:00:09.321Z,9.50
2023-04-10T18:02:36.524Z,9.17
2023-04-10T18:05:03.795Z,9.13
2023-04-10T18:07:30.833Z,8.63
2023-04-10T18:09:57.880Z,9.17
2023-04-10T18:12:24.942Z,9.90
2023-04-10T18:14:52.080Z,9.60
2023-04-10T18:17:19.182Z,9.83
2023-04-10T18:19:46.320Z,9.43
2023-04-10T18:22:13.343Z,10.00
2023-04-10T18:24:40.508Z,8.90
2023-04-10T18:27:07.585Z,9.23
2023-04-10T18:29:34.628Z,8.60
2023-04-10T18:32:01.749Z,8.87
2023-04-10T18:34:28.796Z,9.20
2023-04-10T18:36:56.610Z,8.87
2023-04-10T18:39:23.744Z,9.27
2023-04-10T18:41:50.785Z,8.63
2023-04-10T18:44:17.872Z,8.73
2023-04-10T18:46:48.615Z,8.60
2023-04-10T18:49:21.004Z,8.23
2023-04-10T18:51:48.050Z,8.17
2023-04-10T18:54:15.218Z,8.63
2023-04-10T18:56:42.288Z,8.37
2023-04-10T18:59:09.454Z,8.53
2023-04-10T19:01:36.841Z,8.67
2023-04-10T19:04:04.005Z,8.17
2023-04-10T19:06:32.696Z,8.97
2023-04-10T19:09:00.030Z,7.70
2023-04-10T19:11:27.214Z,8.67
2023-04-10T19:13:54.727Z,8.33
2023-04-10T19:16:22.391Z,8.73
2023-04-10T19:18:49.744Z,8.30
2023-04-10T19:21:16.898Z,8.50
2023-04-10T19:23:44.836Z,7.97
2023-04-10T19:26:11.929Z,7.83
2023-04-10T19:28:40.449Z,8.57
2023-04-10T19:31:08.439Z,8.27
2023-04-10T19:33:35.564Z,7.73
2023-04-10T19:36:02.680Z,8.10
2023-04-10T19:38:30.560Z,8.50
2023-04-10T19:40:57.702Z,8.87
2023-04-10T19:43:25.066Z,8.10
2023-04-10T19:45:53.286Z,7.80
2023-04-10T19:48:22.706Z,7.80
2023-04-10T19:50:49.762Z,7.80
2023-04-10T19:53:16.871Z,8.07
2023-04-10T19:55:44.841Z,8.23
2023-04-10T19:58:30.040Z,7.80
2023-04-10T20:01:06.329Z,8.13
2023-04-10T20:03:37.556Z,7.70
2023-04-10T20:06:07.569Z,7.70
2023-04-10T20:08:35.857Z,7.70
2023-04-10T20:11:06.307Z,7.60
2023-04-10T20:13:34.754Z,6.53
2023-04-10T20:16:05.140Z,7.67
2023-04-10T20:18:32.367Z,8.27
2023-04-10T20:20:59.538Z,7.13
2023-04-10T20:23:26.605Z,7.00
2023-04-10T20:25:53.669Z,6.93
2023-04-10T20:28:20.845Z,7.20
2023-04-10T20:30:47.901Z,7.10
2023-04-10T20:33:17.862Z,7.40
2023-04-10T20:35:45.698Z,7.73
2023-04-10T20:38:12.800Z,7.30
2023-04-10T20:40:42.764Z,7.33
2023-04-10T20:43:13.953Z,7.00
2023-04-10T20:45:41.430Z,7.10
2023-04-10T20:48:11.387Z,6.90
2023-04-10T20:50:45.781Z,6.80
2023-04-10T20:53:13.272Z,6.53
2023-04-10T20:55:40.977Z,6.47
2023-04-10T20:58:08.221Z,6.67
2023-04-10T21:00:35.670Z,6.60
2023-04-10T21:03:05.979Z,6.80
2023-04-10T21:05:33.099Z,6.90
2023-04-10T21:08:00.300Z,6.70
2023-04-10T21:10:27.358Z,6.80
2023-04-10T21:12:54.424Z,6.80
2023-04-10T21:15:22.378Z,6.60
2023-04-10T21:17:51.912Z,6.60
2023-04-10T21:20:19.041Z,6.33
2023-04-10T21:22:46.174Z,6.67
2023-04-10T21:25:13.327Z,6.43
2023-04-10T21:27:40.406Z,6.40
2023-04-10T21:30:08.751Z,6.43
2023-04-10T21:32:35.881Z,6.23
2023-04-10T21:35:03.059Z,6.27
2023-04-10T21:37:30.931Z,6.40
2023-04-10T21:39:58.068Z,6.03
2023-04-10T21:42:25.146Z,5.70
2023-04-10T21:44:54.126Z,6.00
2023-04-10T21:47:21.303Z,6.43
2023-04-10T21:49:48.557Z,5.70
2023-04-10T21:52:15.603Z,6.00
2023-04-10T21:54:42.683Z,6.23
2023-04-10T21:57:09.727Z,6.60
2023-04-10T21:59:37.263Z,6.20
2023-04-10T22:02:04.409Z,6.27
2023-04-10T22:04:33.102Z,6.17
2023-04-10T22:07:00.269Z,6.07
2023-04-10T22:09:27.315Z,6.30
2023-04-10T22:11:54.465Z,6.40
2023-04-10T22:14:21.619Z,6.33
2023-04-10T22:16:48.736Z,6.73
2023-04-10T22:19:15.919Z,6.33
2023-04-10T22:21:43.106Z,6.33
2023-04-10T22:24:11.099Z,6.10
2023-04-10T22:26:38.283Z,6.70
2023-04-10T22:29:05.577Z,6.07
2023-04-10T22:31:32.784Z,6.33
2023-04-10T22:33:59.870Z,6.40
2023-04-10T22:36:35.407Z,5.90
2023-04-10T22:39:03.519Z,6.93
2023-04-10T22:41:31.784Z,6.90
2023-04-10T22:43:58.971Z,6.40
2023-04-10T22:46:26.162Z,6.57
2023-04-10T22:48:55.013Z,7.00
2023-04-10T22:51:22.328Z,7.17
2023-04-10T22:53:49.370Z,6.20
2023-04-10T22:56:17.153Z,6.40
2023-04-10T22:58:44.202Z,6.43
2023-04-10T23:01:14.268Z,6.13
2023-04-10T23:03:41.574Z,6.23
2023-04-10T23:06:09.282Z,6.20
2023-04-10T23:08:36.872Z,6.17
2023-04-10T23:11:04.056Z,5.70
2023-04-10T23:13:31.158Z,5.63
2023-04-10T23:15:58.318Z,5.97
2023-04-10T23:18:25.553Z,6.37
2023-04-10T23:20:52.642Z,6.00
2023-04-10T23:23:20.008Z,5.87
2023-04-10T23:25:56.648Z,5.77
2023-04-10T23:28:23.736Z,5.90
2023-04-10T23:30:50.868Z,5.70
2023-04-10T23:33:18.389Z,5.50
2023-04-10T23:35:45.569Z,5.70
2023-04-10T23:38:12.657Z,6.07
2023-04-10T23:40:39.721Z,6.20
2023-04-10T23:43:06.829Z,5.63
2023-04-10T23:45:33.881Z,5.40
2023-04-10T23:48:00.959Z,6.10
2023-04-10T23:50:28.007Z,5.83
2023-04-10T23:52:55.289Z,6.23
2023-04-10T23:55:22.855Z,5.97
2023-04-10T23:57:49.944Z,5.87
